sensor_id;sensor_type;location;lat;lon;timestamp;pressure;altitude;pressure_sealevel;temperature;humidity
79538;BME280;68989;52.032;5.152;2023-04-29T00:01:27;101624.40;;;16.71;53.35
79538;BME280;68989;52.032;5.152;2023-04-29T00:03:54;101628.47;;;16.71;53.45
79538;BME280;68989;52.032;5.152;2023-04-29T00:06:22;101631.82;;;16.70;53.49
79538;BME280;68989;52.032;5.152;2023-04-29T00:08:49;101632.34;;;16.69;53.53
79538;BME280;68989;52.032;5.152;2023-04-29T00:11:16;101636.31;;;16.66;53.68
79538;BME280;68989;52.032;5.152;2023-04-29T00:13:44;101636.54;;;16.66;53.65
79538;BME280;68989;52.032;5.152;2023-04-29T00:16:11;101635.22;;;16.66;53.57
79538;BME280;68989;52.032;5.152;2023-04-29T00:18:38;101635.36;;;16.67;53.51
79538;BME280;68989;52.032;5.152;2023-04-29T00:21:05;101637.24;;;16.67;53.59
79538;BME280;68989;52.032;5.152;2023-04-29T00:23:32;101640.61;;;16.67;53.49
79538;BME280;68989;52.032;5.152;2023-04-29T00:25:59;101642.56;;;16.67;53.56
79538;BME280;68989;52.032;5.152;2023-04-29T00:28:26;101645.41;;;16.67;53.52
79538;BME280;68989;52.032;5.152;2023-04-29T00:30:53;101647.73;;;16.67;53.48
79538;BME280;68989;52.032;5.152;2023-04-29T00:33:20;101651.79;;;16.66;53.11
79538;BME280;68989;52.032;5.152;2023-04-29T00:35:48;101654.79;;;16.64;53.55
79538;BME280;68989;52.032;5.152;2023-04-29T00:38:15;101653.86;;;16.61;53.62
79538;BME280;68989;52.032;5.152;2023-04-29T00:40:42;101655.17;;;16.61;53.48
79538;BME280;68989;52.032;5.152;2023-04-29T00:43:09;101656.12;;;16.60;53.60
79538;BME280;68989;52.032;5.152;2023-04-29T00:45:36;101655.84;;;16.59;53.60
79538;BME280;68989;52.032;5.152;2023-04-29T00:48:04;101659.07;;;16.59;53.47
79538;BME280;68989;52.032;5.152;2023-04-29T00:50:31;101657.78;;;16.56;53.65
79538;BME280;68989;52.032;5.152;2023-04-29T00:52:58;101656.13;;;16.54;53.58
79538;BME280;68989;52.032;5.152;2023-04-29T00:55:27;101656.95;;;16.53;53.56
79538;BME280;68989;52.032;5.152;2023-04-29T00:57:55;101658.07;;;16.48;53.78
79538;BME280;68989;52.032;5.152;2023-04-29T01:00:23;101659.68;;;16.48;53.74
79538;BME280;68989;52.032;5.152;2023-04-29T01:02:52;101664.15;;;16.49;53.71
79538;BME280;68989;52.032;5.152;2023-04-29T01:05:19;101669.17;;;16.50;53.62
79538;BME280;68989;52.032;5.152;2023-04-29T01:07:53;101670.18;;;16.50;53.65
79538;BME280;68989;52.032;5.152;2023-04-29T01:10:26;101676.86;;;16.50;53.63
79538;BME280;68989;52.032;5.152;2023-04-29T01:13:04;101677.29;;;16.51;53.51
79538;BME280;68989;52.032;5.152;2023-04-29T01:15:45;101681.27;;;16.51;53.53
79538;BME280;68989;52.032;5.152;2023-04-29T01:18:19;101687.86;;;16.50;53.58
79538;BME280;68989;52.032;5.152;2023-04-29T01:20:46;101690.03;;;16.50;53.48
79538;BME280;68989;52.032;5.152;2023-04-29T01:23:14;101688.80;;;16.47;53.56
79538;BME280;68989;52.032;5.152;2023-04-29T01:25:41;101690.18;;;16.45;53.47
79538;BME280;68989;52.032;5.152;2023-04-29T01:28:24;101687.52;;;16.44;53.63
79538;BME280;68989;52.032;5.152;2023-04-29T01:30:59;101687.80;;;16.44;53.52
79538;BME280;68989;52.032;5.152;2023-04-29T01:33:36;101688.82;;;16.41;53.53
79538;BME280;68989;52.032;5.152;2023-04-29T01:36:20;101692.65;;;16.38;53.69
79538;BME280;68989;52.032;5.152;2023-04-29T01:38:57;101694.85;;;16.39;53.70
79538;BME280;68989;52.032;5.152;2023-04-29T01:41:33;101697.44;;;16.41;53.66
79538;BME280;68989;52.032;5.152;2023-04-29T01:44:02;101698.66;;;16.41;53.61
79538;BME280;68989;52.032;5.152;2023-04-29T01:46:30;101701.92;;;16.42;53.52
79538;BME280;68989;52.032;5.152;2023-04-29T01:48:58;101702.97;;;16.42;53.41
79538;BME280;68989;52.032;5.152;2023-04-29T01:51:24;101705.87;;;16.41;53.42
79538;BME280;68989;52.032;5.152;2023-04-29T01:53:52;101707.55;;;16.42;53.38
79538;BME280;68989;52.032;5.152;2023-04-29T01:56:19;101709.62;;;16.42;53.43
79538;BME280;68989;52.032;5.152;2023-04-29T01:58:46;101710.25;;;16.43;53.34
79538;BME280;68989;52.032;5.152;2023-04-29T02:01:13;101707.25;;;16.43;53.36
79538;BME280;68989;52.032;5.152;2023-04-29T02:03:40;101710.20;;;16.43;53.22
79538;BME280;68989;52.032;5.152;2023-04-29T02:06:06;101710.10;;;16.42;53.09
79538;BME280;68989;52.032;5.152;2023-04-29T02:08:33;101709.51;;;16.41;53.29
79538;BME280;68989;52.032;5.152;2023-04-29T02:11:00;101714.01;;;16.40;53.30
79538;BME280;68989;52.032;5.152;2023-04-29T02:13:26;101711.38;;;16.39;53.31
79538;BME280;68989;52.032;5.152;2023-04-29T02:15:53;101713.30;;;16.38;53.36
79538;BME280;68989;52.032;5.152;2023-04-29T02:18:20;101720.51;;;16.36;53.09
79538;BME280;68989;52.032;5.152;2023-04-29T02:20:47;101721.49;;;16.35;53.29
79538;BME280;68989;52.032;5.152;2023-04-29T02:23:14;101727.96;;;16.34;53.38
79538;BME280;68989;52.032;5.152;2023-04-29T02:25:41;101732.28;;;16.34;53.15
79538;BME280;68989;52.032;5.152;2023-04-29T02:28:08;101732.64;;;16.33;53.41
79538;BME280;68989;52.032;5.152;2023-04-29T02:30:35;101734.89;;;16.30;53.39
79538;BME280;68989;52.032;5.152;2023-04-29T02:33:02;101739.22;;;16.28;53.46
79538;BME280;68989;52.032;5.152;2023-04-29T02:35:29;101740.15;;;16.27;53.45
79538;BME280;68989;52.032;5.152;2023-04-29T02:37:57;101745.62;;;16.26;53.45
79538;BME280;68989;52.032;5.152;2023-04-29T02:40:24;101749.45;;;16.26;53.52
79538;BME280;68989;52.032;5.152;2023-04-29T02:42:50;101752.13;;;16.26;53.25
79538;BME280;68989;52.032;5.152;2023-04-29T02:45:17;101755.14;;;16.24;53.49
79538;BME280;68989;52.032;5.152;2023-04-29T02:47:44;101757.95;;;16.24;53.49
79538;BME280;68989;52.032;5.152;2023-04-29T02:50:12;101758.71;;;16.23;53.36
79538;BME280;68989;52.032;5.152;2023-04-29T02:52:39;101760.87;;;16.22;53.34
79538;BME280;68989;52.032;5.152;2023-04-29T02:55:07;101761.69;;;16.20;53.46
79538;BME280;68989;52.032;5.152;2023-04-29T02:57:34;101763.79;;;16.19;53.54
79538;BME280;68989;52.032;5.152;2023-04-29T03:00:01;101766.05;;;16.19;53.33
79538;BME280;68989;52.032;5.152;2023-04-29T03:02:29;101772.26;;;16.15;53.66
79538;BME280;68989;52.032;5.152;2023-04-29T03:04:56;101777.36;;;16.14;53.68
79538;BME280;68989;52.032;5.152;2023-04-29T03:07:23;101781.68;;;16.16;53.62
79538;BME280;68989;52.032;5.152;2023-04-29T03:09:51;101782.94;;;16.19;53.50
79538;BME280;68989;52.032;5.152;2023-04-29T03:12:18;101780.64;;;16.20;53.42
79538;BME280;68989;52.032;5.152;2023-04-29T03:14:45;101783.78;;;16.22;53.36
79538;BME280;68989;52.032;5.152;2023-04-29T03:17:12;101782.48;;;16.22;53.40
79538;BME280;68989;52.032;5.152;2023-04-29T03:19:39;101785.48;;;16.23;53.37
79538;BME280;68989;52.032;5.152;2023-04-29T03:22:06;101789.07;;;16.22;53.46
79538;BME280;68989;52.032;5.152;2023-04-29T03:24:33;101793.18;;;16.22;53.44
79538;BME280;68989;52.032;5.152;2023-04-29T03:27:00;101792.02;;;16.22;53.45
79538;BME280;68989;52.032;5.152;2023-04-29T03:29:27;101794.57;;;16.23;53.41
79538;BME280;68989;52.032;5.152;2023-04-29T03:31:54;101796.51;;;16.23;53.40
79538;BME280;68989;52.032;5.152;2023-04-29T03:34:21;101796.11;;;16.24;53.38
79538;BME280;68989;52.032;5.152;2023-04-29T03:36:48;101794.55;;;16.24;53.26
79538;BME280;68989;52.032;5.152;2023-04-29T03:39:15;101794.77;;;16.22;53.42
79538;BME280;68989;52.032;5.152;2023-04-29T03:41:42;101795.63;;;16.20;53.48
79538;BME280;68989;52.032;5.152;2023-04-29T03:44:09;101796.14;;;16.20;53.38
79538;BME280;68989;52.032;5.152;2023-04-29T03:46:36;101796.71;;;16.18;53.48
79538;BME280;68989;52.032;5.152;2023-04-29T03:49:03;101805.67;;;16.17;53.59
79538;BME280;68989;52.032;5.152;2023-04-29T03:51:30;101807.27;;;16.15;53.70
79538;BME280;68989;52.032;5.152;2023-04-29T03:53:57;101807.43;;;16.15;53.67
79538;BME280;68989;52.032;5.152;2023-04-29T03:56:24;101808.05;;;16.15;53.64
79538;BME280;68989;52.032;5.152;2023-04-29T03:58:51;101806.27;;;16.15;53.68
79538;BME280;68989;52.032;5.152;2023-04-29T04:01:19;101806.67;;;16.16;53.54
79538;BME280;68989;52.032;5.152;2023-04-29T04:03:46;101810.60;;;16.16;53.62
79538;BME280;68989;52.032;5.152;2023-04-29T04:06:13;101811.31;;;16.16;53.58
79538;BME280;68989;52.032;5.152;2023-04-29T04:08:40;101815.63;;;16.17;53.56
79538;BME280;68989;52.032;5.152;2023-04-29T04:11:06;101818.78;;;16.17;53.25
79538;BME280;68989;52.032;5.152;2023-04-29T04:13:33;101821.05;;;16.15;53.62
79538;BME280;68989;52.032;5.152;2023-04-29T04:16:00;101822.68;;;16.14;53.65
79538;BME280;68989;52.032;5.152;2023-04-29T04:18:27;101826.57;;;16.15;53.47
79538;BME280;68989;52.032;5.152;2023-04-29T04:20:55;101829.79;;;16.15;53.62
79538;BME280;68989;52.032;5.152;2023-04-29T04:23:22;101832.08;;;16.15;53.60
79538;BME280;68989;52.032;5.152;2023-04-29T04:25:49;101832.14;;;16.14;53.62
79538;BME280;68989;52.032;5.152;2023-04-29T04:28:16;101838.16;;;16.15;53.64
79538;BME280;68989;52.032;5.152;2023-04-29T04:30:45;101840.27;;;16.15;53.62
79538;BME280;68989;52.032;5.152;2023-04-29T04:33:12;101842.26;;;16.15;53.53
79538;BME280;68989;52.032;5.152;2023-04-29T04:35:39;101845.07;;;16.14;53.57
79538;BME280;68989;52.032;5.152;2023-04-29T04:38:06;101855.03;;;16.09;53.80
79538;BME280;68989;52.032;5.152;2023-04-29T04:40:33;101858.96;;;16.08;53.72
79538;BME280;68989;52.032;5.152;2023-04-29T04:43:01;101866.19;;;16.08;53.85
79538;BME280;68989;52.032;5.152;2023-04-29T04:45:28;101873.34;;;16.06;53.97
79538;BME280;68989;52.032;5.152;2023-04-29T04:47:54;101878.31;;;16.00;54.32
79538;BME280;68989;52.032;5.152;2023-04-29T04:50:22;101877.52;;;16.00;54.20
79538;BME280;68989;52.032;5.152;2023-04-29T04:52:49;101881.77;;;16.01;54.18
79538;BME280;68989;52.032;5.152;2023-04-29T04:55:16;101886.96;;;16.04;54.09
79538;BME280;68989;52.032;5.152;2023-04-29T04:57:43;101889.53;;;16.06;53.98
79538;BME280;68989;52.032;5.152;2023-04-29T05:00:11;101891.11;;;16.06;53.99
79538;BME280;68989;52.032;5.152;2023-04-29T05:02:39;101893.76;;;16.07;53.95
79538;BME280;68989;52.032;5.152;2023-04-29T05:05:07;101895.33;;;16.09;53.92
79538;BME280;68989;52.032;5.152;2023-04-29T05:07:34;101892.06;;;16.10;53.86
79538;BME280;68989;52.032;5.152;2023-04-29T05:10:01;101888.47;;;16.13;53.78
79538;BME280;68989;52.032;5.152;2023-04-29T05:12:28;101889.37;;;16.15;53.68
79538;BME280;68989;52.032;5.152;2023-04-29T05:14:56;101892.89;;;16.17;53.54
79538;BME280;68989;52.032;5.152;2023-04-29T05:17:24;101894.22;;;16.18;53.56
79538;BME280;68989;52.032;5.152;2023-04-29T05:19:51;101898.17;;;16.19;53.41
79538;BME280;68989;52.032;5.152;2023-04-29T05:22:18;101905.53;;;16.18;53.73
79538;BME280;68989;52.032;5.152;2023-04-29T05:24:45;101905.56;;;16.18;53.67
79538;BME280;68989;52.032;5.152;2023-04-29T05:27:13;101906.64;;;16.19;53.71
79538;BME280;68989;52.032;5.152;2023-04-29T05:29:40;101910.23;;;16.22;53.55
79538;BME280;68989;52.032;5.152;2023-04-29T05:32:07;101913.98;;;16.26;53.55
79538;BME280;68989;52.032;5.152;2023-04-29T05:34:34;101918.97;;;16.28;53.61
79538;BME280;68989;52.032;5.152;2023-04-29T05:37:02;101922.79;;;16.32;53.64
79538;BME280;68989;52.032;5.152;2023-04-29T05:39:29;101927.37;;;16.34;53.51
79538;BME280;68989;52.032;5.152;2023-04-29T05:41:55;101934.54;;;16.37;53.68
79538;BME280;68989;52.032;5.152;2023-04-29T05:44:22;101934.74;;;16.39;53.60
79538;BME280;68989;52.032;5.152;2023-04-29T05:46:49;101940.43;;;16.43;53.41
79538;BME280;68989;52.032;5.152;2023-04-29T05:49:16;101939.26;;;16.46;53.48
79538;BME280;68989;52.032;5.152;2023-04-29T05:51:43;101938.73;;;16.48;53.55
79538;BME280;68989;52.032;5.152;2023-04-29T05:54:11;101944.47;;;16.49;53.73
79538;BME280;68989;52.032;5.152;2023-04-29T05:56:38;101946.97;;;16.48;53.81
79538;BME280;68989;52.032;5.152;2023-04-29T05:59:05;101950.33;;;16.49;53.80
79538;BME280;68989;52.032;5.152;2023-04-29T06:01:32;101955.59;;;16.51;53.60
79538;BME280;68989;52.032;5.152;2023-04-29T06:03:59;101958.51;;;16.52;53.48
79538;BME280;68989;52.032;5.152;2023-04-29T06:06:25;101960.62;;;16.53;53.57
79538;BME280;68989;52.032;5.152;2023-04-29T06:08:52;101968.32;;;16.51;53.69
79538;BME280;68989;52.032;5.152;2023-04-29T06:11:19;101969.15;;;16.49;53.69
79538;BME280;68989;52.032;5.152;2023-04-29T06:13:46;101968.78;;;16.47;53.79
79538;BME280;68989;52.032;5.152;2023-04-29T06:16:13;101972.86;;;16.47;53.76
79538;BME280;68989;52.032;5.152;2023-04-29T06:18:40;101975.34;;;16.48;53.82
79538;BME280;68989;52.032;5.152;2023-04-29T06:21:08;101976.93;;;16.51;53.66
79538;BME280;68989;52.032;5.152;2023-04-29T06:23:35;101986.21;;;16.54;53.83
79538;BME280;68989;52.032;5.152;2023-04-29T06:26:02;101989.33;;;16.55;53.87
79538;BME280;68989;52.032;5.152;2023-04-29T06:28:29;101993.67;;;16.56;54.19
79538;BME280;68989;52.032;5.152;2023-04-29T06:30:56;101995.94;;;16.58;54.16
79538;BME280;68989;52.032;5.152;2023-04-29T06:33:23;101998.76;;;16.60;54.48
79538;BME280;68989;52.032;5.152;2023-04-29T06:35:50;102002.84;;;16.65;54.56
79538;BME280;68989;52.032;5.152;2023-04-29T06:38:17;102007.07;;;16.67;54.45
79538;BME280;68989;52.032;5.152;2023-04-29T06:40:44;102008.78;;;16.71;54.86
79538;BME280;68989;52.032;5.152;2023-04-29T06:43:11;102015.31;;;16.76;54.91
79538;BME280;68989;52.032;5.152;2023-04-29T06:45:38;102022.27;;;16.80;54.51
79538;BME280;68989;52.032;5.152;2023-04-29T06:48:05;102022.76;;;16.83;54.29
79538;BME280;68989;52.032;5.152;2023-04-29T06:50:32;102024.52;;;16.82;54.14
79538;BME280;68989;52.032;5.152;2023-04-29T06:52:59;102023.90;;;16.83;54.10
79538;BME280;68989;52.032;5.152;2023-04-29T06:55:26;102025.80;;;16.87;54.15
79538;BME280;68989;52.032;5.152;2023-04-29T06:57:53;102031.49;;;16.92;54.15
79538;BME280;68989;52.032;5.152;2023-04-29T07:00:20;102034.77;;;16.94;53.92
79538;BME280;68989;52.032;5.152;2023-04-29T07:02:47;102041.87;;;16.99;53.66
79538;BME280;68989;52.032;5.152;2023-04-29T07:05:14;102044.23;;;17.02;53.64
79538;BME280;68989;52.032;5.152;2023-04-29T07:07:40;102050.78;;;17.00;53.51
79538;BME280;68989;52.032;5.152;2023-04-29T07:10:08;102056.40;;;17.01;53.60
79538;BME280;68989;52.032;5.152;2023-04-29T07:12:35;102062.15;;;17.05;53.63
79538;BME280;68989;52.032;5.152;2023-04-29T07:15:07;102065.61;;;17.10;53.58
79538;BME280;68989;52.032;5.152;2023-04-29T07:17:34;102068.90;;;17.16;53.55
79538;BME280;68989;52.032;5.152;2023-04-29T07:20:01;102070.27;;;17.23;53.38
79538;BME280;68989;52.032;5.152;2023-04-29T07:22:28;102072.81;;;17.31;53.42
79538;BME280;68989;52.032;5.152;2023-04-29T07:24:56;102075.27;;;17.40;53.42
79538;BME280;68989;52.032;5.152;2023-04-29T07:27:23;102079.23;;;17.48;53.49
79538;BME280;68989;52.032;5.152;2023-04-29T07:29:49;102081.69;;;17.55;52.95
79538;BME280;68989;52.032;5.152;2023-04-29T07:32:16;102084.81;;;17.65;52.98
79538;BME280;68989;52.032;5.152;2023-04-29T07:34:43;102086.27;;;17.78;52.93
79538;BME280;68989;52.032;5.152;2023-04-29T07:37:11;102086.20;;;17.91;52.11
79538;BME280;68989;52.032;5.152;2023-04-29T07:39:37;102086.88;;;18.03;51.74
79538;BME280;68989;52.032;5.152;2023-04-29T07:42:04;102091.08;;;18.11;51.38
79538;BME280;68989;52.032;5.152;2023-04-29T07:44:32;102089.89;;;18.17;51.20
79538;BME280;68989;52.032;5.152;2023-04-29T07:46:59;102096.52;;;18.22;51.12
79538;BME280;68989;52.032;5.152;2023-04-29T07:49:26;102093.06;;;18.24;50.42
79538;BME280;68989;52.032;5.152;2023-04-29T07:51:53;102101.37;;;18.26;50.10
79538;BME280;68989;52.032;5.152;2023-04-29T07:54:21;102101.64;;;18.23;49.68
79538;BME280;68989;52.032;5.152;2023-04-29T07:56:48;102106.39;;;18.22;50.04
79538;BME280;68989;52.032;5.152;2023-04-29T07:59:15;102110.91;;;18.16;49.89
79538;BME280;68989;52.032;5.152;2023-04-29T08:01:42;102112.04;;;18.15;49.54
79538;BME280;68989;52.032;5.152;2023-04-29T08:04:09;102113.62;;;18.16;49.82
79538;BME280;68989;52.032;5.152;2023-04-29T08:06:36;102114.59;;;18.15;49.66
79538;BME280;68989;52.032;5.152;2023-04-29T08:09:04;102116.45;;;18.17;49.69
79538;BME280;68989;52.032;5.152;2023-04-29T08:11:31;102117.97;;;18.12;49.46
79538;BME280;68989;52.032;5.152;2023-04-29T08:13:57;102119.75;;;18.09;49.78
79538;BME280;68989;52.032;5.152;2023-04-29T08:16:25;102119.56;;;18.16;50.17
79538;BME280;68989;52.032;5.152;2023-04-29T08:18:52;102120.95;;;18.30;50.25
79538;BME280;68989;52.032;5.152;2023-04-29T08:21:19;102118.24;;;18.50;50.24
79538;BME280;68989;52.032;5.152;2023-04-29T08:23:47;102117.78;;;18.73;49.95
79538;BME280;68989;52.032;5.152;2023-04-29T08:26:14;102116.07;;;18.97;49.94
79538;BME280;68989;52.032;5.152;2023-04-29T08:28:41;102115.44;;;19.22;49.31
79538;BME280;68989;52.032;5.152;2023-04-29T08:31:15;102114.40;;;19.46;49.05
79538;BME280;68989;52.032;5.152;2023-04-29T08:33:42;102111.98;;;19.62;47.83
79538;BME280;68989;52.032;5.152;2023-04-29T08:36:09;102111.60;;;19.51;46.74
79538;BME280;68989;52.032;5.152;2023-04-29T08:38:37;102111.16;;;19.48;46.75
79538;BME280;68989;52.032;5.152;2023-04-29T08:41:06;102115.20;;;19.43;46.86
79538;BME280;68989;52.032;5.152;2023-04-29T08:43:34;102116.01;;;19.47;47.18
79538;BME280;68989;52.032;5.152;2023-04-29T08:46:02;102122.39;;;19.61;47.51
79538;BME280;68989;52.032;5.152;2023-04-29T08:48:30;102126.50;;;19.71;46.12
79538;BME280;68989;52.032;5.152;2023-04-29T08:50:57;102131.14;;;19.90;47.10
79538;BME280;68989;52.032;5.152;2023-04-29T08:53:24;102130.44;;;20.01;46.01
79538;BME280;68989;52.032;5.152;2023-04-29T08:55:52;102135.38;;;20.12;45.77
79538;BME280;68989;52.032;5.152;2023-04-29T08:58:20;102137.35;;;20.34;46.12
79538;BME280;68989;52.032;5.152;2023-04-29T09:00:48;102140.49;;;20.51;44.50
79538;BME280;68989;52.032;5.152;2023-04-29T09:03:18;102140.43;;;20.68;45.10
79538;BME280;68989;52.032;5.152;2023-04-29T09:05:52;102140.71;;;20.60;43.09
79538;BME280;68989;52.032;5.152;2023-04-29T09:08:20;102143.76;;;20.66;43.29
79538;BME280;68989;52.032;5.152;2023-04-29T09:10:48;102140.37;;;20.85;43.32
79538;BME280;68989;52.032;5.152;2023-04-29T09:13:23;102144.53;;;21.12;43.70
79538;BME280;68989;52.032;5.152;2023-04-29T09:15:51;102144.35;;;21.46;43.74
79538;BME280;68989;52.032;5.152;2023-04-29T09:18:51;102146.85;;;21.78;43.09
79538;BME280;68989;52.032;5.152;2023-04-29T09:21:19;102152.38;;;21.99;41.01
79538;BME280;68989;52.032;5.152;2023-04-29T09:23:47;102154.60;;;22.04;39.18
79538;BME280;68989;52.032;5.152;2023-04-29T09:26:15;102157.91;;;22.08;40.47
79538;BME280;68989;52.032;5.152;2023-04-29T09:28:43;102158.66;;;22.16;40.85
79538;BME280;68989;52.032;5.152;2023-04-29T09:31:10;102156.87;;;22.22;40.93
79538;BME280;68989;52.032;5.152;2023-04-29T09:33:54;102154.40;;;22.27;40.45
79538;BME280;68989;52.032;5.152;2023-04-29T09:36:41;102160.17;;;22.28;39.84
79538;BME280;68989;52.032;5.152;2023-04-29T09:39:09;102157.72;;;22.37;40.46
79538;BME280;68989;52.032;5.152;2023-04-29T09:41:38;102162.88;;;22.25;39.03
79538;BME280;68989;52.032;5.152;2023-04-29T09:44:06;102159.32;;;22.17;39.72
79538;BME280;68989;52.032;5.152;2023-04-29T09:46:35;102166.12;;;22.17;39.89
79538;BME280;68989;52.032;5.152;2023-04-29T09:49:03;102167.76;;;22.24;39.73
79538;BME280;68989;52.032;5.152;2023-04-29T09:51:31;102169.14;;;22.18;38.63
79538;BME280;68989;52.032;5.152;2023-04-29T09:53:59;102166.58;;;22.05;39.39
79538;BME280;68989;52.032;5.152;2023-04-29T09:56:26;102168.71;;;22.10;39.84
79538;BME280;68989;52.032;5.152;2023-04-29T09:58:53;102164.46;;;22.10;39.30
79538;BME280;68989;52.032;5.152;2023-04-29T10:01:21;102163.35;;;21.91;39.07
79538;BME280;68989;52.032;5.152;2023-04-29T10:03:49;102161.36;;;21.90;39.28
79538;BME280;68989;52.032;5.152;2023-04-29T10:06:18;102162.27;;;21.99;39.79
79538;BME280;68989;52.032;5.152;2023-04-29T10:08:46;102159.66;;;22.14;39.66
79538;BME280;68989;52.032;5.152;2023-04-29T10:11:15;102156.38;;;22.34;40.16
79538;BME280;68989;52.032;5.152;2023-04-29T10:13:42;102163.37;;;22.58;40.13
79538;BME280;68989;52.032;5.152;2023-04-29T10:16:18;102162.24;;;22.79;39.05
79538;BME280;68989;52.032;5.152;2023-04-29T10:18:52;102160.56;;;23.09;39.90
79538;BME280;68989;52.032;5.152;2023-04-29T10:21:23;102163.65;;;23.40;39.54
79538;BME280;68989;52.032;5.152;2023-04-29T10:23:52;102166.52;;;23.64;37.81
79538;BME280;68989;52.032;5.152;2023-04-29T10:26:19;102169.04;;;23.78;37.39
79538;BME280;68989;52.032;5.152;2023-04-29T10:28:48;102170.73;;;23.98;37.41
79538;BME280;68989;52.032;5.152;2023-04-29T10:31:18;102163.38;;;24.25;37.65
79538;BME280;68989;52.032;5.152;2023-04-29T10:33:47;102172.53;;;24.51;36.78
79538;BME280;68989;52.032;5.152;2023-04-29T10:36:16;102176.23;;;24.57;36.00
79538;BME280;68989;52.032;5.152;2023-04-29T10:38:46;102178.46;;;24.66;34.83
79538;BME280;68989;52.032;5.152;2023-04-29T10:41:18;102175.48;;;24.66;35.08
79538;BME280;68989;52.032;5.152;2023-04-29T10:43:46;102176.69;;;24.66;35.10
79538;BME280;68989;52.032;5.152;2023-04-29T10:46:18;102176.81;;;24.70;34.87
79538;BME280;68989;52.032;5.152;2023-04-29T10:48:45;102174.13;;;24.83;34.60
79538;BME280;68989;52.032;5.152;2023-04-29T10:51:16;102171.67;;;24.94;35.10
79538;BME280;68989;52.032;5.152;2023-04-29T10:54:05;102174.53;;;25.01;35.19
79538;BME280;68989;52.032;5.152;2023-04-29T10:56:37;102173.83;;;25.09;34.50
79538;BME280;68989;52.032;5.152;2023-04-29T10:59:04;102173.50;;;25.15;34.41
79538;BME280;68989;52.032;5.152;2023-04-29T11:01:41;102167.93;;;25.21;34.04
79538;BME280;68989;52.032;5.152;2023-04-29T11:04:08;102168.01;;;25.31;33.66
79538;BME280;68989;52.032;5.152;2023-04-29T11:06:42;102165.90;;;25.51;34.17
79538;BME280;68989;52.032;5.152;2023-04-29T11:09:13;102170.71;;;25.69;33.95
79538;BME280;68989;52.032;5.152;2023-04-29T11:11:45;102175.44;;;25.80;33.17
79538;BME280;68989;52.032;5.152;2023-04-29T11:14:13;102174.98;;;25.86;33.66
79538;BME280;68989;52.032;5.152;2023-04-29T11:16:49;102171.52;;;25.94;33.63
79538;BME280;68989;52.032;5.152;2023-04-29T11:19:16;102165.88;;;26.13;34.09
79538;BME280;68989;52.032;5.152;2023-04-29T11:21:44;102174.21;;;26.31;33.61
79538;BME280;68989;52.032;5.152;2023-04-29T11:24:12;102174.67;;;26.35;31.36
79538;BME280;68989;52.032;5.152;2023-04-29T11:26:41;102174.65;;;26.36;32.57
79538;BME280;68989;52.032;5.152;2023-04-29T11:29:08;102171.11;;;26.14;30.61
79538;BME280;68989;52.032;5.152;2023-04-29T11:31:36;102172.52;;;26.00;29.85
79538;BME280;68989;52.032;5.152;2023-04-29T11:34:04;102165.97;;;25.88;29.43
79538;BME280;68989;52.032;5.152;2023-04-29T11:36:31;102165.24;;;25.54;30.69
79538;BME280;68989;52.032;5.152;2023-04-29T11:38:59;102167.43;;;25.41;31.32
79538;BME280;68989;52.032;5.152;2023-04-29T11:41:27;102168.42;;;25.55;31.32
79538;BME280;68989;52.032;5.152;2023-04-29T11:43:54;102168.27;;;25.81;32.33
79538;BME280;68989;52.032;5.152;2023-04-29T11:46:22;102170.51;;;26.06;32.03
79538;BME280;68989;52.032;5.152;2023-04-29T11:48:49;102170.38;;;26.28;32.48
79538;BME280;68989;52.032;5.152;2023-04-29T11:51:17;102172.85;;;26.45;32.17
79538;BME280;68989;52.032;5.152;2023-04-29T11:53:45;102172.16;;;26.57;32.15
79538;BME280;68989;52.032;5.152;2023-04-29T11:56:12;102171.96;;;26.67;30.99
79538;BME280;68989;52.032;5.152;2023-04-29T11:58:41;102165.27;;;26.83;30.93
79538;BME280;68989;52.032;5.152;2023-04-29T12:01:08;102166.49;;;27.08;31.58
79538;BME280;68989;52.032;5.152;2023-04-29T12:03:35;102165.33;;;27.38;31.42
79538;BME280;68989;52.032;5.152;2023-04-29T12:06:03;102164.90;;;27.33;29.70
79538;BME280;68989;52.032;5.152;2023-04-29T12:08:30;102160.75;;;27.47;30.37
79538;BME280;68989;52.032;5.152;2023-04-29T12:10:58;102160.77;;;27.63;29.91
79538;BME280;68989;52.032;5.152;2023-04-29T12:13:27;102159.64;;;27.76;28.97
79538;BME280;68989;52.032;5.152;2023-04-29T12:15:55;102155.55;;;27.94;30.72
79538;BME280;68989;52.032;5.152;2023-04-29T12:18:22;102158.18;;;27.98;27.20
79538;BME280;68989;52.032;5.152;2023-04-29T12:20:50;102156.92;;;28.02;28.25
79538;BME280;68989;52.032;5.152;2023-04-29T12:23:19;102156.03;;;28.17;28.02
79538;BME280;68989;52.032;5.152;2023-04-29T12:25:48;102156.75;;;28.39;28.84
79538;BME280;68989;52.032;5.152;2023-04-29T12:28:15;102156.30;;;28.61;27.88
79538;BME280;68989;52.032;5.152;2023-04-29T12:30:43;102162.92;;;28.84;28.60
79538;BME280;68989;52.032;5.152;2023-04-29T12:33:15;102163.97;;;29.01;28.61
79538;BME280;68989;52.032;5.152;2023-04-29T12:35:44;102158.29;;;29.18;28.78
79538;BME280;68989;52.032;5.152;2023-04-29T12:38:11;102158.58;;;29.24;26.15
79538;BME280;68989;52.032;5.152;2023-04-29T12:40:41;102158.92;;;29.01;25.96
79538;BME280;68989;52.032;5.152;2023-04-29T12:43:10;102163.73;;;28.85;27.52
79538;BME280;68989;52.032;5.152;2023-04-29T12:45:37;102165.27;;;28.87;27.09
79538;BME280;68989;52.032;5.152;2023-04-29T12:48:05;102167.46;;;28.86;26.48
79538;BME280;68989;52.032;5.152;2023-04-29T12:50:34;102167.92;;;28.70;26.25
79538;BME280;68989;52.032;5.152;2023-04-29T12:53:02;102163.71;;;28.62;27.55
79538;BME280;68989;52.032;5.152;2023-04-29T12:55:31;102167.84;;;28.62;27.94